Time;durP1;ratioP1;P1;durP2;ratioP2;P2;SDS_P1;SDS_P2;PMS_P1;PMS_P2;Temp;Humidity;BMP_temperature;BMP_pressure;BME280_temperature;BME280_humidity;BME280_pressure;Samples;Min_cycle;Max_cycle;Signal;HPM_P1;HPM_P2
2022/08/09 00:00:24;;;;;;;4.53;2.00;;;20.80;61.00;;;;;;5016453;28;20107;-68
2022/08/09 00:02:50;;;;;;;5.20;1.98;;;20.80;61.10;;;;;;5035682;28;20037;-68
2022/08/09 00:05:22;;;;;;;3.85;1.92;;;20.80;61.20;;;;;;5022201;28;20025;-68
2022/08/09 00:07:48;;;;;;;5.07;1.98;;;20.80;61.30;;;;;;5022822;28;20028;-68
2022/08/09 00:10:13;;;;;;;7.18;2.20;;;20.80;61.30;;;;;;5014847;28;20026;-68
2022/08/09 00:12:39;;;;;;;3.35;1.77;;;20.70;61.30;;;;;;5033745;28;20067;-68
2022/08/09 00:15:05;;;;;;;3.33;1.75;;;20.70;61.40;;;;;;5024561;28;20060;-68
2022/08/09 00:17:31;;;;;;;4.10;1.92;;;20.70;61.50;;;;;;5034418;28;20037;-68
2022/08/09 00:19:57;;;;;;;5.47;2.40;;;20.70;61.50;;;;;;4999838;28;20033;-68
2022/08/09 00:22:22;;;;;;;4.85;2.50;;;20.70;61.60;;;;;;5028450;28;20446;-68
2022/08/09 00:24:48;;;;;;;5.75;2.17;;;20.60;61.60;;;;;;5024681;28;20034;-69
2022/08/09 00:27:13;;;;;;;4.72;2.10;;;20.70;61.70;;;;;;5034395;28;20480;-68
2022/08/09 00:29:39;;;;;;;5.93;2.30;;;20.60;61.80;;;;;;5016684;28;20048;-68
2022/08/09 00:32:05;;;;;;;6.20;1.90;;;20.60;61.80;;;;;;5032310;28;20459;-68
2022/08/09 00:34:31;;;;;;;4.63;1.80;;;20.60;61.90;;;;;;5031801;28;20033;-69
2022/08/09 00:36:56;;;;;;;4.43;2.25;;;20.50;61.90;;;;;;5030912;28;20083;-68
2022/08/09 00:39:25;;;;;;;5.95;2.47;;;20.50;62.00;;;;;;5022915;28;20036;-68
2022/08/09 00:41:51;;;;;;;6.78;2.40;;;20.50;62.20;;;;;;5023950;28;20041;-68
2022/08/09 00:44:17;;;;;;;4.72;2.00;;;20.50;62.30;;;;;;5034477;28;20052;-68
2022/08/09 00:46:42;;;;;;;5.45;2.10;;;20.50;62.40;;;;;;5025774;28;20065;-68
2022/08/09 00:49:09;;;;;;;5.95;2.30;;;20.50;62.50;;;;;;5026388;28;20025;-68
2022/08/09 00:51:35;;;;;;;5.50;2.35;;;20.50;62.50;;;;;;5027712;28;20025;-68
2022/08/09 00:54:01;;;;;;;7.30;2.38;;;20.40;62.50;;;;;;5017572;28;20116;-68
2022/08/09 00:56:29;;;;;;;5.22;2.20;;;20.40;62.60;;;;;;5024666;28;20026;-68
2022/08/09 00:58:56;;;;;;;5.07;2.40;;;20.40;62.60;;;;;;5023971;28;20040;-68
2022/08/09 01:01:28;;;;;;;4.70;2.13;;;20.40;62.70;;;;;;5021866;28;20079;-68
2022/08/09 01:03:57;;;;;;;5.45;2.38;;;20.40;62.80;;;;;;5029871;28;20040;-68
2022/08/09 01:06:35;;;;;;;6.03;2.22;;;20.40;62.80;;;;;;5029154;28;20037;-68
2022/08/09 01:09:38;;;;;;;4.38;2.00;;;20.40;62.90;;;;;;5023781;28;20059;-69
2022/08/09 01:12:28;;;;;;;5.03;2.40;;;20.30;62.90;;;;;;5015296;28;20069;-69
2022/08/09 01:15:08;;;;;;;5.22;2.55;;;20.30;63.00;;;;;;5027469;28;20025;-68
2022/08/09 01:17:42;;;;;;;6.03;2.10;;;20.30;63.10;;;;;;5030793;28;20037;-68
2022/08/09 01:20:13;;;;;;;6.68;2.35;;;20.20;63.10;;;;;;5019374;28;20283;-68
2022/08/09 01:22:58;;;;;;;4.57;2.33;;;20.20;63.30;;;;;;5036914;28;20434;-68
2022/08/09 01:25:38;;;;;;;4.88;2.25;;;20.20;63.40;;;;;;5017956;28;20497;-68
2022/08/09 01:28:05;;;;;;;5.60;2.30;;;20.20;63.50;;;;;;5028631;28;20030;-69
2022/08/09 01:30:35;;;;;;;5.22;2.33;;;20.10;63.50;;;;;;5016792;28;20409;-68
2022/08/09 01:33:05;;;;;;;6.22;2.60;;;20.10;63.70;;;;;;5015524;28;20447;-69
2022/08/09 01:35:56;;;;;;;5.55;2.40;;;20.10;64.40;;;;;;5029432;28;20030;-68
2022/08/09 01:38:28;;;;;;;4.93;2.65;;;20.10;63.80;;;;;;5026385;28;20026;-68
2022/08/09 01:41:05;;;;;;;6.35;2.78;;;20.10;63.90;;;;;;5025193;28;20061;-68
2022/08/09 01:43:35;;;;;;;4.90;2.55;;;20.00;63.90;;;;;;5012533;28;20041;-68
2022/08/09 01:46:01;;;;;;;5.35;2.72;;;20.00;64.00;;;;;;5014153;28;20032;-69
2022/08/09 01:48:27;;;;;;;7.20;3.10;;;20.00;64.00;;;;;;5020238;28;20080;-68
2022/08/09 01:50:54;;;;;;;6.57;2.75;;;20.00;64.20;;;;;;4998980;28;20033;-69
2022/08/09 01:53:21;;;;;;;5.43;2.78;;;20.00;64.20;;;;;;5024422;28;20029;-68
2022/08/09 01:55:49;;;;;;;6.90;3.03;;;20.00;64.20;;;;;;5027721;28;20060;-68
2022/08/09 01:58:16;;;;;;;6.47;2.58;;;20.00;64.30;;;;;;5017356;28;20030;-69
2022/08/09 02:00:44;;;;;;;6.30;2.40;;;20.00;64.40;;;;;;5026255;28;20455;-68
2022/08/09 02:03:10;;;;;;;6.90;3.00;;;20.00;64.40;;;;;;4995772;28;20367;-68
2022/08/09 02:05:37;;;;;;;6.40;2.78;;;19.90;64.40;;;;;;5016303;28;20589;-68
2022/08/09 02:08:07;;;;;;;7.68;2.60;;;19.90;64.50;;;;;;5018455;28;20115;-68
2022/08/09 02:10:37;;;;;;;6.15;2.80;;;19.90;64.50;;;;;;5024384;28;20095;-68
2022/08/09 02:13:05;;;;;;;8.13;2.85;;;19.90;64.60;;;;;;5016900;28;20161;-68
2022/08/09 02:15:40;;;;;;;7.80;2.90;;;19.90;64.60;;;;;;5033327;28;20029;-68
2022/08/09 02:18:07;;;;;;;5.75;2.65;;;19.90;64.70;;;;;;5024494;28;20033;-68
2022/08/09 02:20:37;;;;;;;5.25;2.70;;;19.90;64.70;;;;;;5035979;28;20072;-68
2022/08/09 02:23:16;;;;;;;5.82;2.67;;;19.90;64.80;;;;;;5020230;28;20091;-69
2022/08/09 02:25:44;;;;;;;6.03;2.60;;;19.90;64.80;;;;;;5036828;28;20049;-68
2022/08/09 02:28:21;;;;;;;7.25;2.72;;;19.80;64.80;;;;;;5020384;28;20065;-68
2022/08/09 02:30:51;;;;;;;5.35;2.60;;;19.80;65.00;;;;;;5037322;28;20044;-68
2022/08/09 02:33:25;;;;;;;7.00;2.67;;;19.80;65.00;;;;;;5025899;28;20037;-68
2022/08/09 02:35:57;;;;;;;6.20;2.42;;;19.80;65.00;;;;;;5032020;28;20644;-69
2022/08/09 02:38:26;;;;;;;;;;;19.80;65.10;;;;;;5024521;28;20037;-68
2022/08/09 02:40:54;;;;;;;6.20;2.60;;;19.80;64.90;;;;;;5036207;28;19909;-69
2022/08/09 02:43:23;;;;;;;5.53;2.42;;;19.80;65.00;;;;;;5018815;28;20032;-68
2022/08/09 02:45:50;;;;;;;6.32;2.65;;;19.70;65.10;;;;;;5025014;28;20033;-68
2022/08/09 02:48:18;;;;;;;5.10;2.45;;;19.80;65.30;;;;;;5034018;28;20575;-68
2022/08/09 02:50:49;;;;;;;7.18;3.00;;;19.70;65.30;;;;;;5013738;28;20037;-68
2022/08/09 02:53:26;;;;;;;5.80;2.75;;;19.70;65.40;;;;;;5015941;28;20048;-68
2022/08/09 02:55:56;;;;;;;5.40;2.60;;;19.70;65.40;;;;;;5005792;28;20030;-68
2022/08/09 02:58:25;;;;;;;4.53;2.05;;;19.70;65.50;;;;;;5029406;28;20049;-68
2022/08/09 03:00:52;;;;;;;5.22;2.53;;;19.70;65.60;;;;;;5030672;28;20034;-68
2022/08/09 03:03:20;;;;;;;6.28;2.70;;;19.70;65.70;;;;;;5016171;28;20095;-68
2022/08/09 03:05:49;;;;;;;5.75;2.40;;;19.70;65.90;;;;;;5021119;28;20097;-68
2022/08/09 03:08:16;;;;;;;6.30;2.70;;;19.60;65.80;;;;;;5030675;28;20048;-68
2022/08/09 03:10:44;;;;;;;5.95;2.78;;;19.60;66.00;;;;;;5035693;28;20485;-68
2022/08/09 03:13:12;;;;;;;7.97;3.22;;;19.60;66.10;;;;;;5030456;28;20068;-69
2022/08/09 03:15:38;;;;;;;5.82;3.03;;;19.60;66.10;;;;;;5032353;28;20029;-69
2022/08/09 03:18:06;;;;;;;5.25;2.78;;;19.60;66.20;;;;;;5027924;28;20145;-69
2022/08/09 03:20:31;;;;;;;7.70;3.47;;;19.50;66.20;;;;;;5034165;28;20434;-69
2022/08/09 03:22:58;;;;;;;7.03;2.92;;;19.50;66.30;;;;;;5028619;28;20036;-69
2022/08/09 03:25:25;;;;;;;6.03;2.92;;;19.50;66.40;;;;;;5036393;28;20076;-69
2022/08/09 03:27:52;;;;;;;7.28;2.97;;;19.50;66.50;;;;;;5009499;28;20128;-69
2022/08/09 03:30:19;;;;;;;7.25;3.40;;;19.50;66.70;;;;;;5036196;28;20061;-69
2022/08/09 03:32:45;;;;;;;6.28;2.88;;;19.50;66.70;;;;;;5028198;28;20029;-69
2022/08/09 03:35:10;;;;;;;7.88;3.40;;;19.50;66.80;;;;;;5028289;28;20034;-69
2022/08/09 03:37:40;;;;;;;6.25;3.13;;;19.40;66.80;;;;;;5020947;28;20030;-69
2022/08/09 03:40:07;;;;;;;7.22;3.63;;;19.40;66.90;;;;;;5036071;28;20048;-69
2022/08/09 03:42:33;;;;;;;8.82;4.35;;;19.40;66.90;;;;;;5025669;28;20474;-69
2022/08/09 03:44:59;;;;;;;8.38;3.47;;;19.40;67.00;;;;;;5027698;28;20027;-68
2022/08/09 03:47:24;;;;;;;7.38;3.50;;;19.40;67.10;;;;;;5029949;28;20026;-69
2022/08/09 03:49:51;;;;;;;7.38;3.33;;;19.40;67.10;;;;;;5016678;28;20337;-69
2022/08/09 03:52:18;;;;;;;8.35;3.78;;;19.40;67.20;;;;;;5027000;28;20359;-68
2022/08/09 03:54:46;;;;;;;6.95;3.55;;;19.40;67.30;;;;;;5027080;28;20079;-69
2022/08/09 03:57:14;;;;;;;7.55;4.15;;;19.40;67.40;;;;;;5024330;28;20021;-69
2022/08/09 03:59:43;;;;;;;8.15;3.38;;;19.40;67.40;;;;;;5012175;28;20116;-69
2022/08/09 04:02:09;;;;;;;6.43;3.63;;;19.30;67.40;;;;;;5027426;28;20072;-69
2022/08/09 04:04:35;;;;;;;6.93;3.47;;;19.30;67.50;;;;;;5016069;28;20017;-69
2022/08/09 04:07:02;;;;;;;7.45;3.90;;;19.30;67.50;;;;;;5030296;28;20037;-69
2022/08/09 04:09:28;;;;;;;7.53;4.18;;;19.30;67.60;;;;;;5024123;28;20017;-69
2022/08/09 04:12:14;;;;;;;7.57;4.13;;;19.30;67.60;;;;;;5023023;28;20364;-69
2022/08/09 04:14:40;;;;;;;7.03;3.47;;;19.20;67.60;;;;;;5016190;28;20034;-69
2022/08/09 04:17:07;;;;;;;7.43;3.67;;;19.20;67.60;;;;;;5026161;28;20112;-69
2022/08/09 04:19:33;;;;;;;7.45;3.70;;;19.20;67.70;;;;;;5019802;28;20133;-69
2022/08/09 04:21:58;;;;;;;7.18;3.65;;;19.20;67.70;;;;;;5024105;28;20180;-69
2022/08/09 04:24:24;;;;;;;7.38;3.90;;;19.20;67.80;;;;;;5020169;28;20108;-69
2022/08/09 04:26:51;;;;;;;8.38;3.65;;;19.20;67.80;;;;;;5034979;28;20025;-69
2022/08/09 04:29:17;;;;;;;9.52;4.00;;;19.20;67.90;;;;;;5018129;28;20320;-69
2022/08/09 04:31:42;;;;;;;6.78;3.83;;;19.20;68.00;;;;;;5018379;28;20028;-69
2022/08/09 04:34:08;;;;;;;8.00;4.25;;;19.20;68.00;;;;;;5022445;28;20032;-69
2022/08/09 04:36:34;;;;;;;8.82;4.40;;;19.20;68.00;;;;;;5015754;28;20026;-69
2022/08/09 04:39:03;;;;;;;7.60;3.80;;;19.20;68.10;;;;;;5007023;28;20127;-69
2022/08/09 04:41:30;;;;;;;7.57;3.97;;;19.10;68.10;;;;;;5010874;28;20096;-69
2022/08/09 04:43:56;;;;;;;7.55;4.03;;;19.10;68.10;;;;;;5010198;28;20100;-69
2022/08/09 04:46:21;;;;;;;7.80;3.90;;;19.10;68.20;;;;;;5026422;28;20029;-69
2022/08/09 04:48:47;;;;;;;8.30;4.35;;;19.10;68.20;;;;;;5003523;28;20355;-69
2022/08/09 04:51:13;;;;;;;8.75;4.20;;;19.10;68.20;;;;;;5034329;28;20029;-69
2022/08/09 04:53:39;;;;;;;8.43;4.30;;;19.10;68.20;;;;;;5017461;28;20060;-69
2022/08/09 04:56:05;;;;;;;8.02;4.43;;;19.10;68.20;;;;;;5017625;28;20037;-69
2022/08/09 04:58:32;;;;;;;8.18;4.25;;;19.20;68.20;;;;;;5034679;28;20037;-69
2022/08/09 05:00:58;;;;;;;7.93;4.38;;;19.10;68.20;;;;;;5020977;28;20026;-69
2022/08/09 05:03:24;;;;;;;8.13;4.03;;;19.10;68.20;;;;;;5029702;28;20093;-69
2022/08/09 05:05:49;;;;;;;8.73;4.65;;;19.10;68.20;;;;;;5022679;28;20034;-69
2022/08/09 05:08:15;;;;;;;8.27;4.47;;;19.20;68.20;;;;;;5012217;28;20040;-69
2022/08/09 05:10:41;;;;;;;8.00;4.70;;;19.20;68.30;;;;;;5024091;28;20051;-69
2022/08/09 05:13:07;;;;;;;7.68;4.20;;;19.20;68.30;;;;;;5032859;28;20205;-67
2022/08/09 05:15:33;;;;;;;10.15;5.07;;;19.20;68.30;;;;;;5013392;28;20040;-67
2022/08/09 05:17:58;;;;;;;9.02;4.18;;;19.20;68.30;;;;;;5016638;28;20030;-67
2022/08/09 05:20:25;;;;;;;8.90;4.38;;;19.20;68.40;;;;;;5025995;28;20453;-68
2022/08/09 05:22:53;;;;;;;7.93;4.18;;;19.20;68.30;;;;;;5034206;28;20100;-68
2022/08/09 05:25:20;;;;;;;7.95;3.83;;;19.20;68.40;;;;;;5021467;28;20061;-68
2022/08/09 05:27:46;;;;;;;7.72;4.25;;;19.20;68.30;;;;;;5021174;28;20022;-68
2022/08/09 05:30:12;;;;;;;8.18;4.00;;;19.30;68.40;;;;;;5013899;28;20050;-68
2022/08/09 05:32:38;;;;;;;6.93;3.92;;;19.30;68.40;;;;;;5011952;28;20030;-69
2022/08/09 05:35:04;;;;;;;9.68;3.92;;;19.30;68.40;;;;;;5032553;28;20104;-69
2022/08/09 05:37:30;;;;;;;8.90;4.45;;;19.40;68.40;;;;;;5019766;28;20104;-69
2022/08/09 05:39:57;;;;;;;9.20;4.32;;;19.40;68.20;;;;;;5029578;28;20108;-69
2022/08/09 05:42:24;;;;;;;8.60;4.20;;;19.50;68.10;;;;;;5029137;28;20038;-69
2022/08/09 05:44:53;;;;;;;8.93;3.63;;;19.50;68.00;;;;;;5027785;28;20030;-69
2022/08/09 05:47:21;;;;;;;8.57;4.10;;;19.60;67.90;;;;;;5025313;28;20026;-69
2022/08/09 05:49:46;;;;;;;6.22;3.97;;;19.70;67.70;;;;;;5009775;28;20091;-69
2022/08/09 05:52:12;;;;;;;8.23;4.43;;;19.80;67.50;;;;;;5029999;28;20450;-70
2022/08/09 05:54:38;;;;;;;7.93;4.32;;;19.90;67.40;;;;;;5029591;28;20042;-70
2022/08/09 05:57:04;;;;;;;7.90;4.15;;;19.90;67.20;;;;;;5026542;28;20025;-70
2022/08/09 05:59:29;;;;;;;9.38;3.70;;;20.00;67.20;;;;;;5011364;28;20041;-70
2022/08/09 06:01:55;;;;;;;7.55;4.07;;;20.00;67.10;;;;;;5020834;28;20025;-70
2022/08/09 06:04:21;;;;;;;7.25;3.85;;;20.10;66.90;;;;;;5022445;28;20024;-70
2022/08/09 06:06:46;;;;;;;8.48;4.15;;;20.20;66.80;;;;;;5026489;28;20120;-71
2022/08/09 06:09:12;;;;;;;8.30;4.60;;;20.20;66.60;;;;;;5016260;28;20030;-70
2022/08/09 06:11:37;;;;;;;7.38;3.50;;;20.20;66.50;;;;;;5024269;28;20041;-70
2022/08/09 06:14:03;;;;;;;7.35;3.50;;;20.30;66.40;;;;;;5028253;28;20428;-70
2022/08/09 06:16:29;;;;;;;7.43;4.03;;;20.40;66.20;;;;;;5023992;28;20048;-70
2022/08/09 06:18:54;;;;;;;6.60;3.78;;;20.50;66.00;;;;;;5032984;28;20044;-70
2022/08/09 06:21:20;;;;;;;8.65;4.35;;;20.70;65.80;;;;;;5033889;28;20030;-70
2022/08/09 06:23:47;;;;;;;7.45;3.58;;;20.80;65.40;;;;;;5033782;28;20339;-70
2022/08/09 06:26:17;;;;;;;8.90;4.13;;;21.00;65.10;;;;;;5033042;28;20048;-70
2022/08/09 06:28:42;;;;;;;8.10;3.90;;;21.20;64.50;;;;;;5033011;28;20026;-70
2022/08/09 06:31:08;;;;;;;8.90;4.13;;;21.40;64.10;;;;;;5018224;28;20343;-70
2022/08/09 06:33:34;;;;;;;6.35;3.22;;;21.60;63.60;;;;;;5018905;28;20025;-70
2022/08/09 06:35:59;;;;;;;7.85;3.45;;;21.80;63.20;;;;;;5026857;28;20359;-70
2022/08/09 06:38:25;;;;;;;6.68;3.53;;;22.00;62.80;;;;;;4998952;28;20042;-70
2022/08/09 06:40:51;;;;;;;7.70;3.25;;;22.20;62.30;;;;;;4990235;28;20045;-70
2022/08/09 06:43:17;;;;;;;7.28;3.33;;;22.30;61.90;;;;;;5003061;28;20397;-70
2022/08/09 06:45:42;;;;;;;8.00;3.67;;;22.50;61.50;;;;;;5006492;28;20084;-71
2022/08/09 06:48:08;;;;;;;6.68;2.90;;;22.60;61.20;;;;;;5010809;28;20363;-71
2022/08/09 06:50:35;;;;;;;7.03;3.33;;;22.80;60.90;;;;;;5012361;28;20052;-71
2022/08/09 06:53:01;;;;;;;5.60;2.60;;;22.90;60.60;;;;;;5014660;28;20394;-71
2022/08/09 06:55:30;;;;;;;5.53;2.70;;;23.10;60.30;;;;;;5013425;28;20113;-72
2022/08/09 06:57:57;;;;;;;5.43;2.60;;;23.30;59.90;;;;;;5012633;28;20061;-71
2022/08/09 07:00:23;;;;;;;6.28;3.28;;;23.50;59.50;;;;;;5011826;28;20032;-72
2022/08/09 07:02:50;;;;;;;6.40;2.60;;;23.60;59.00;;;;;;5014320;28;20034;-71
2022/08/09 07:05:16;;;;;;;5.55;3.00;;;23.70;59.30;;;;;;4993802;28;20064;-67
2022/08/09 07:07:41;;;;;;;6.10;2.30;;;23.80;58.50;;;;;;4993905;28;20026;-67
2022/08/09 07:10:07;;;;;;;6.25;2.80;;;24.00;58.20;;;;;;5011165;28;20026;-67
2022/08/09 07:12:33;;;;;;;5.75;2.55;;;24.10;58.00;;;;;;5013229;28;20045;-68
2022/08/09 07:14:58;;;;;;;9.70;2.28;;;24.20;57.70;;;;;;5009733;28;20489;-67
2022/08/09 07:17:24;;;;;;;5.15;2.20;;;24.40;57.40;;;;;;5013508;28;20029;-68
2022/08/09 07:19:50;;;;;;;6.18;2.05;;;24.50;57.00;;;;;;5012865;28;20534;-69
2022/08/09 07:22:16;;;;;;;5.90;2.42;;;24.60;56.70;;;;;;5013408;28;20030;-69
2022/08/09 07:24:42;;;;;;;5.15;2.40;;;24.70;56.50;;;;;;5013407;28;20447;-68
2022/08/09 07:27:10;;;;;;;5.18;2.17;;;24.70;56.20;;;;;;5006634;28;20033;-68
2022/08/09 07:29:36;;;;;;;5.38;1.70;;;24.90;56.10;;;;;;5012194;28;20034;-68
2022/08/09 07:32:03;;;;;;;4.43;1.60;;;25.00;55.90;;;;;;5009599;28;20029;-68
2022/08/09 07:34:29;;;;;;;4.32;1.75;;;25.20;55.60;;;;;;5013901;28;20053;-69
2022/08/09 07:36:55;;;;;;;3.65;1.60;;;25.30;55.30;;;;;;5007293;28;20096;-68
2022/08/09 07:39:22;;;;;;;4.93;1.98;;;25.40;55.60;;;;;;5009975;28;20029;-68
2022/08/09 07:41:48;;;;;;;3.75;1.75;;;25.50;54.80;;;;;;5013762;28;20111;-68
2022/08/09 07:44:13;;;;;;;4.90;1.77;;;25.50;54.50;;;;;;5023788;28;20029;-68
2022/08/09 07:46:39;;;;;;;3.72;1.80;;;25.60;54.20;;;;;;5015096;28;20026;-69
2022/08/09 07:49:05;;;;;;;3.08;1.48;;;25.70;53.90;;;;;;5035836;28;20150;-69
2022/08/09 07:51:31;;;;;;;4.80;1.73;;;25.80;53.80;;;;;;5027105;28;20037;-69
2022/08/09 07:53:56;;;;;;;4.03;1.45;;;25.80;54.10;;;;;;5035635;28;20029;-69
2022/08/09 07:56:24;;;;;;;5.55;1.70;;;25.90;53.30;;;;;;5024447;28;20051;-68
2022/08/09 07:58:50;;;;;;;4.75;1.67;;;26.00;53.00;;;;;;5019046;28;20034;-68
2022/08/09 08:01:16;;;;;;;4.03;1.48;;;26.10;52.80;;;;;;5022193;28;20511;-68
2022/08/09 08:03:41;;;;;;;2.50;1.20;;;26.20;52.50;;;;;;5013992;28;20101;-69
2022/08/09 08:06:07;;;;;;;3.85;1.60;;;26.40;52.30;;;;;;5016923;28;20017;-69
2022/08/09 08:08:33;;;;;;;4.78;1.40;;;26.50;52.00;;;;;;5033440;28;20021;-68
2022/08/09 08:10:59;;;;;;;3.13;1.27;;;26.60;51.70;;;;;;5022009;28;20022;-68
2022/08/09 08:13:25;;;;;;;4.57;1.20;;;26.70;51.20;;;;;;5035227;28;20433;-67
2022/08/09 08:15:50;;;;;;;1.90;1.02;;;26.80;50.90;;;;;;5010845;28;20030;-68
2022/08/09 08:18:16;;;;;;;5.43;1.50;;;26.90;50.60;;;;;;5030435;28;20041;-71
2022/08/09 08:20:42;;;;;;;4.68;1.20;;;27.00;50.20;;;;;;5010931;28;20025;-71
2022/08/09 08:23:07;;;;;;;3.08;1.05;;;27.10;49.70;;;;;;5020687;28;20037;-71
2022/08/09 08:25:34;;;;;;;2.65;1.20;;;27.10;49.20;;;;;;5013982;28;20049;-71
2022/08/09 08:28:00;;;;;;;3.00;1.17;;;27.20;48.80;;;;;;5020520;28;20442;-71
2022/08/09 08:30:26;;;;;;;3.30;1.08;;;27.30;48.50;;;;;;5017304;28;20040;-72
2022/08/09 08:32:52;;;;;;;2.03;1.08;;;27.40;48.10;;;;;;5002853;28;20057;-72
2022/08/09 08:35:18;;;;;;;3.15;1.05;;;27.50;48.00;;;;;;5018317;28;20037;-72
2022/08/09 08:37:43;;;;;;;2.78;1.33;;;27.50;47.90;;;;;;5025634;28;20059;-72
2022/08/09 08:40:09;;;;;;;3.13;0.88;;;27.60;47.60;;;;;;5008166;28;20489;-72
2022/08/09 08:42:35;;;;;;;3.55;1.05;;;27.60;47.40;;;;;;5029999;28;20030;-72
2022/08/09 08:45:02;;;;;;;3.03;1.00;;;27.70;47.30;;;;;;5022448;28;20426;-72
2022/08/09 08:47:29;;;;;;;2.17;0.90;;;27.80;47.00;;;;;;5020942;28;20029;-72
2022/08/09 08:49:58;;;;;;;2.45;1.10;;;27.80;46.70;;;;;;5023917;28;20033;-72
2022/08/09 08:52:27;;;;;;;3.35;1.10;;;28.00;46.50;;;;;;5018964;28;20095;-73
2022/08/09 08:54:56;;;;;;;2.00;1.02;;;28.00;46.10;;;;;;5013971;28;20091;-73
2022/08/09 08:57:23;;;;;;;2.38;0.98;;;28.10;45.70;;;;;;5012049;28;20033;-72
2022/08/09 08:59:50;;;;;;;2.65;0.88;;;28.10;45.50;;;;;;5015875;28;20362;-72
2022/08/09 09:02:27;;;;;;;1.20;0.80;;;28.20;45.30;;;;;;5008080;28;20026;-72
2022/08/09 09:04:56;;;;;;;2.80;0.98;;;28.20;44.70;;;;;;5018102;28;20025;-72
2022/08/09 09:07:23;;;;;;;2.75;1.13;;;28.30;44.70;;;;;;5017716;28;20034;-72
2022/08/09 09:09:51;;;;;;;3.03;1.27;;;28.30;44.60;;;;;;5020980;28;20029;-72
2022/08/09 09:12:19;;;;;;;1.80;0.88;;;28.40;44.70;;;;;;5025519;28;20111;-72
2022/08/09 09:14:46;;;;;;;4.00;1.00;;;28.40;44.70;;;;;;5027692;28;20583;-72
2022/08/09 09:17:13;;;;;;;4.05;1.20;;;28.50;44.50;;;;;;5012003;28;20037;-72
2022/08/09 09:19:39;;;;;;;3.92;1.00;;;28.60;44.30;;;;;;5028180;28;20033;-73
2022/08/09 09:22:09;;;;;;;2.90;0.95;;;28.70;44.20;;;;;;5022876;28;20033;-72
2022/08/09 09:24:38;;;;;;;3.58;1.02;;;28.80;43.90;;;;;;5013062;28;20021;-72
2022/08/09 09:27:06;;;;;;;2.15;0.90;;;28.80;43.70;;;;;;5019681;28;20401;-72
2022/08/09 09:29:34;;;;;;;2.88;0.90;;;28.90;43.60;;;;;;4993061;28;20474;-73
2022/08/09 09:32:01;;;;;;;2.05;0.88;;;29.00;43.40;;;;;;5021457;28;20029;-72
2022/08/09 09:34:27;;;;;;;2.80;0.90;;;29.10;43.30;;;;;;5033251;28;20107;-72
2022/08/09 09:36:53;;;;;;;3.80;1.02;;;29.20;43.00;;;;;;5010591;28;20475;-72
2022/08/09 09:39:21;;;;;;;1.77;0.80;;;29.30;42.80;;;;;;5024060;28;20323;-72
2022/08/09 09:41:48;;;;;;;1.92;0.95;;;29.30;42.40;;;;;;5002111;28;20026;-72
2022/08/09 09:44:39;;;;;;;2.33;0.98;;;29.40;42.20;;;;;;5033873;28;20034;-73
2022/08/09 09:47:06;;;;;;;2.33;1.02;;;29.40;41.90;;;;;;5001132;28;20025;-72
2022/08/09 09:49:32;;;;;;;2.08;0.70;;;29.50;41.80;;;;;;5033206;28;20029;-72
2022/08/09 09:52:03;;;;;;;1.83;0.85;;;29.50;41.90;;;;;;5019430;28;20028;-72
2022/08/09 09:54:38;;;;;;;2.22;1.10;;;29.50;41.60;;;;;;5033207;28;20079;-72
2022/08/09 09:57:16;;;;;;;3.05;0.93;;;29.70;41.70;;;;;;5021258;28;20013;-72
2022/08/09 09:59:44;;;;;;;2.75;0.93;;;29.80;41.40;;;;;;5033263;28;20097;-73
2022/08/09 10:02:10;;;;;;;0.90;0.73;;;29.80;41.40;;;;;;5029331;28;20044;-73
2022/08/09 10:04:37;;;;;;;2.10;0.98;;;29.80;41.10;;;;;;5024519;28;20034;-72
2022/08/09 10:07:03;;;;;;;1.45;0.75;;;29.90;40.70;;;;;;5013465;28;20037;-72
2022/08/09 10:09:46;;;;;;;2.88;1.00;;;29.90;40.60;;;;;;5030950;28;20421;-71
2022/08/09 10:12:12;;;;;;;2.95;0.93;;;30.00;40.60;;;;;;5024862;28;20050;-71
2022/08/09 10:14:37;;;;;;;2.70;0.95;;;30.10;40.50;;;;;;5023026;28;20125;-70
2022/08/09 10:17:10;;;;;;;4.03;1.02;;;30.20;40.10;;;;;;5001331;28;20459;-70
2022/08/09 10:19:36;;;;;;;2.15;0.80;;;30.20;40.00;;;;;;5032770;28;20026;-70
2022/08/09 10:22:02;;;;;;;2.17;0.70;;;30.20;40.00;;;;;;5029885;28;20081;-71
2022/08/09 10:24:28;;;;;;;1.92;0.73;;;30.20;39.90;;;;;;5014942;28;21710;-70
2022/08/09 10:26:55;;;;;;;1.85;0.75;;;30.30;39.80;;;;;;5024193;28;20036;-70
2022/08/09 10:29:22;;;;;;;1.75;0.75;;;30.30;39.70;;;;;;5038066;28;20029;-71
2022/08/09 10:31:48;;;;;;;1.10;0.80;;;30.30;39.60;;;;;;5029954;28;20057;-70
2022/08/09 10:34:15;;;;;;;2.13;0.75;;;30.30;39.50;;;;;;5037958;28;20088;-70
2022/08/09 10:36:41;;;;;;;1.52;0.68;;;30.40;40.00;;;;;;5020607;28;20033;-71
2022/08/09 10:39:07;;;;;;;2.10;0.70;;;30.40;39.50;;;;;;5032325;28;20454;-71
2022/08/09 10:41:34;;;;;;;1.55;0.60;;;30.50;39.80;;;;;;5027480;28;20121;-70
2022/08/09 10:44:00;;;;;;;1.55;0.80;;;30.50;39.40;;;;;;5022549;28;20030;-70
2022/08/09 10:46:55;;;;;;;1.70;0.75;;;30.50;39.50;;;;;;5030850;28;20033;-71
2022/08/09 10:49:20;;;;;;;1.55;0.93;;;30.50;39.50;;;;;;5029728;28;20430;-71
2022/08/09 10:51:57;;;;;;;1.00;0.80;;;30.50;39.50;;;;;;5025838;28;20216;-71
2022/08/09 10:54:24;;;;;;;2.08;0.90;;;30.60;39.40;;;;;;5026674;28;20381;-69
2022/08/09 10:57:16;;;;;;;2.15;0.90;;;30.60;39.40;;;;;;5019221;28;20171;-69
2022/08/09 10:59:43;;;;;;;1.27;0.57;;;30.60;39.10;;;;;;5030113;28;20041;-70
2022/08/09 11:02:34;;;;;;;1.38;0.82;;;30.60;39.00;;;;;;5032687;28;20036;-70
2022/08/09 11:05:14;;;;;;;1.75;0.80;;;30.60;38.80;;;;;;5018868;28;20440;-70
2022/08/09 11:07:40;;;;;;;1.38;0.80;;;30.60;39.00;;;;;;5012434;28;20026;-69
2022/08/09 11:10:06;;;;;;;1.95;0.80;;;30.60;39.10;;;;;;5019207;28;20080;-69
2022/08/09 11:12:32;;;;;;;1.85;1.00;;;30.60;39.10;;;;;;5025622;28;20050;-69
2022/08/09 11:15:21;;;;;;;1.80;0.90;;;30.70;39.30;;;;;;5006332;28;20879;-69
2022/08/09 11:17:48;;;;;;;1.88;0.80;;;30.80;38.90;;;;;;5015950;28;20070;-70
2022/08/09 11:20:14;;;;;;;1.20;0.68;;;30.80;38.80;;;;;;5024705;28;20051;-70
2022/08/09 11:22:40;;;;;;;1.35;0.68;;;30.90;38.60;;;;;;5030789;28;20037;-70
2022/08/09 11:25:15;;;;;;;2.13;0.70;;;30.90;38.40;;;;;;5024812;28;20040;-69
2022/08/09 11:27:47;;;;;;;1.52;0.60;;;30.90;38.40;;;;;;5034089;28;20405;-69
2022/08/09 11:30:22;;;;;;;1.80;0.70;;;30.90;38.40;;;;;;5023758;28;20036;-69
2022/08/09 11:33:00;;;;;;;2.58;0.82;;;30.90;38.80;;;;;;5011575;28;20061;-70
2022/08/09 11:35:38;;;;;;;2.42;0.80;;;30.90;37.90;;;;;;5022117;28;20442;-69
2022/08/09 11:38:31;;;;;;;3.22;0.90;;;30.90;37.70;;;;;;5012769;28;20024;-69
2022/08/09 11:41:02;;;;;;;0.98;0.68;;;30.90;37.80;;;;;;5009392;28;20038;-70
2022/08/09 11:43:28;;;;;;;1.73;0.75;;;30.90;37.80;;;;;;5012592;28;20041;-70
2022/08/09 11:45:56;;;;;;;1.42;0.85;;;30.90;37.80;;;;;;5010024;28;20428;-70
2022/08/09 11:48:30;;;;;;;1.70;0.75;;;30.90;37.70;;;;;;5030087;28;20446;-70
2022/08/09 11:50:55;;;;;;;3.05;0.65;;;30.80;37.50;;;;;;5009756;28;20034;-70
2022/08/09 11:53:22;;;;;;;3.03;0.65;;;30.80;37.70;;;;;;5012747;28;20049;-70
2022/08/09 11:55:50;;;;;;;4.43;0.80;;;30.70;37.70;;;;;;5015154;28;20359;-70
2022/08/09 11:58:19;;;;;;;1.35;0.80;;;30.60;37.70;;;;;;5010669;28;20042;-70
2022/08/09 12:00:58;;;;;;;1.63;0.68;;;30.60;37.60;;;;;;5004764;28;20034;-70
2022/08/09 12:03:25;;;;;;;1.85;0.57;;;30.50;37.60;;;;;;5013994;28;20026;-70
2022/08/09 12:05:54;;;;;;;2.08;0.82;;;30.50;37.80;;;;;;5030195;28;20033;-70
2022/08/09 12:08:21;;;;;;;2.05;0.70;;;30.50;38.40;;;;;;5026636;28;20072;-70
2022/08/09 12:10:56;;;;;;;3.40;0.93;;;30.40;37.90;;;;;;5024949;28;20075;-69
2022/08/09 12:13:32;;;;;;;2.90;0.70;;;30.30;37.80;;;;;;5022121;28;20069;-71
2022/08/09 12:16:03;;;;;;;2.42;0.60;;;30.20;37.50;;;;;;5035387;28;20112;-69
2022/08/09 12:18:30;;;;;;;2.63;0.63;;;30.10;37.20;;;;;;5025279;28;20029;-69
2022/08/09 12:20:57;;;;;;;2.83;0.80;;;30.10;37.00;;;;;;5025723;28;20348;-69
2022/08/09 12:23:23;;;;;;;1.10;0.63;;;30.00;36.90;;;;;;5024114;28;20029;-69
2022/08/09 12:25:50;;;;;;;2.30;0.80;;;30.00;37.10;;;;;;5024855;28;20029;-65
2022/08/09 12:28:21;;;;;;;1.30;0.80;;;29.90;37.10;;;;;;5010192;28;20062;-66
2022/08/09 12:30:47;;;;;;;2.35;0.70;;;29.80;37.30;;;;;;5004710;28;20476;-66
2022/08/09 12:33:14;;;;;;;2.03;0.90;;;29.70;37.60;;;;;;5017527;28;20071;-66
2022/08/09 12:35:42;;;;;;;2.33;0.80;;;29.60;37.70;;;;;;5025438;28;20038;-66
2022/08/09 12:38:21;;;;;;;1.40;0.85;;;29.50;37.60;;;;;;5015848;28;20033;-66
2022/08/09 12:40:51;;;;;;;2.60;0.80;;;29.50;38.00;;;;;;5023788;28;20362;-66
2022/08/09 12:43:22;;;;;;;1.88;0.70;;;29.40;37.90;;;;;;5035071;28;20036;-66
2022/08/09 12:45:49;;;;;;;1.85;0.70;;;29.30;37.90;;;;;;5021663;28;20025;-66
2022/08/09 12:48:16;;;;;;;1.45;0.80;;;29.30;38.10;;;;;;4999175;28;20033;-66
2022/08/09 12:50:43;;;;;;;1.83;0.65;;;29.20;38.10;;;;;;5022698;28;20030;-66
2022/08/09 12:53:39;;;;;;;2.78;0.73;;;29.10;38.20;;;;;;5012670;28;20026;-67